Time,TemperatureF,DewpointF,PressureIn,WindDirection,WindDirectionDegrees,WindSpeedMPH,WindSpeedGustMPH,Humidity,HourlyPrecipIn,Conditions,Clouds,dailyrainin,SolarRadiationWatts/m^2,SoftwareType,DateUTC
2013-10-28 00:02:00,35.5,30.2,29.86,SW,215,0.0,1.0,81,0.00,CLR,CLR,0.00,0.0,WeatherDisplay:10.37,2013-10-28 05:02:00,
2013-10-28 00:07:00,35.0,29.5,29.86,SW,215,0.0,0.0,80,0.00,CLR,CLR,0.00,0.0,WeatherDisplay:10.37,2013-10-28 05:07:00,
2013-10-28 00:12:00,34.4,28.9,29.86,SW,215,0.0,0.0,80,0.00,CLR,CLR,0.00,0.0,WeatherDisplay:10.37,2013-10-28 05:12:00,
2013-10-28 00:18:00,33.9,29.0,29.86,SW,215,0.0,0.0,82,0.00,CLR,CLR,0.00,0.0,WeatherDisplay:10.37,2013-10-28 05:18:00,
2013-10-28 00:22:00,33.4,28.5,29.86,SW,215,0.0,0.0,82,0.00,CLR,CLR,0.00,0.0,WeatherDisplay:10.37,2013-10-28 05:22:00,
2013-10-28 00:27:00,33.0,28.7,29.87,SW,215,0.0,0.0,84,0.00,CLR,CLR,0.00,0.0,WeatherDisplay:10.37,2013-10-28 05:27:00,
2013-10-28 00:32:00,33.3,29.5,29.87,SW,215,0.0,1.0,86,0.00,CLR,CLR,0.00,0.0,WeatherDisplay:10.37,2013-10-28 05:32:00,
2013-10-28 00:38:00,33.3,29.3,29.87,SW,215,0.0,1.0,85,0.00,CLR,CLR,0.00,0.0,WeatherDisplay:10.37,2013-10-28 05:38:00,
2013-10-28 00:42:00,33.0,28.4,29.87,SW,215,0.0,0.0,83,0.00,CLR,CLR,0.00,0.0,WeatherDisplay:10.37,2013-10-28 05:42:00,
2013-10-28 00:47:00,32.8,29.1,29.87,SW,215,0.0,0.0,86,0.00,CLR,CLR,0.00,0.0,WeatherDisplay:10.37,2013-10-28 05:47:00,
2013-10-28 00:52:00,32.6,28.9,29.87,SW,215,0.0,0.0,86,0.00,CLR,CLR,0.00,0.0,WeatherDisplay:10.37,2013-10-28 05:52:00,
2013-10-28 00:57:00,32.0,27.5,29.87,SW,215,0.0,0.0,83,0.00,CLR,CLR,0.00,0.0,WeatherDisplay:10.37,2013-10-28 05:57:00,
2013-10-28 01:02:00,31.6,27.6,29.87,SW,215,0.0,0.0,85,0.00,CLR,CLR,0.00,0.0,WeatherDisplay:10.37,2013-10-28 06:02:00,
2013-10-28 01:07:00,31.5,27.8,29.87,SW,215,0.0,0.0,86,0.00,CLR,CLR,0.00,0.0,WeatherDisplay:10.37,2013-10-28 06:07:00,
2013-10-28 01:12:00,31.4,28.0,29.87,SW,215,0.0,0.0,87,0.00,CLR,CLR,0.00,0.0,WeatherDisplay:10.37,2013-10-28 06:12:00,
2013-10-28 01:18:00,31.6,28.5,29.87,SW,215,0.0,0.0,88,0.00,CLR,CLR,0.00,0.0,WeatherDisplay:10.37,2013-10-28 06:18:00,
2013-10-28 01:28:00,31.7,28.6,29.87,SW,215,0.0,0.0,88,0.00,CLR,CLR,0.00,0.0,WeatherDisplay:10.37,2013-10-28 06:28:00,
2013-10-28 01:32:00,31.6,28.2,29.87,SW,215,0.0,0.0,87,0.00,CLR,CLR,0.00,0.0,WeatherDisplay:10.37,2013-10-28 06:32:00,
2013-10-28 01:37:00,31.6,28.5,29.87,SW,215,0.0,0.0,88,0.00,CLR,CLR,0.00,0.0,WeatherDisplay:10.37,2013-10-28 06:37:00,
2013-10-28 01:42:00,31.8,28.6,29.87,SW,215,0.0,1.0,88,0.00,CLR,CLR,0.00,0.0,WeatherDisplay:10.37,2013-10-28 06:42:00,
2013-10-28 01:48:00,32.0,28.9,29.88,SW,215,0.0,1.0,88,0.00,CLR,CLR,0.00,0.0,WeatherDisplay:10.37,2013-10-28 06:48:00,
2013-10-28 01:57:00,31.8,28.4,29.88,SW,215,0.0,0.0,87,0.00,CLR,CLR,0.00,0.0,WeatherDisplay:10.37,2013-10-28 06:57:00,
2013-10-28 02:02:00,31.8,28.7,29.88,SW,215,0.0,0.0,88,0.00,CLR,CLR,0.00,0.0,WeatherDisplay:10.37,2013-10-28 07:02:00,
2013-10-28 02:08:00,32.0,29.1,29.88,SW,215,0.0,0.0,89,0.00,CLR,CLR,0.00,0.0,WeatherDisplay:10.37,2013-10-28 07:08:00,
2013-10-28 02:12:00,32.1,28.9,29.88,SW,215,0.0,0.0,88,0.00,CLR,CLR,0.00,0.0,WeatherDisplay:10.37,2013-10-28 07:12:00,
2013-10-28 02:17:00,32.2,29.0,29.88,SW,215,0.0,0.0,88,0.00,CLR,CLR,0.00,0.0,WeatherDisplay:10.37,2013-10-28 07:17:00,
2013-10-28 02:22:00,32.1,28.4,29.88,SW,215,0.0,0.0,86,0.00,CLR,CLR,0.00,0.0,WeatherDisplay:10.37,2013-10-28 07:22:00,
2013-10-28 02:28:00,32.0,28.9,29.88,SW,215,1.0,2.0,88,0.00,CLR,CLR,0.00,0.0,WeatherDisplay:10.37,2013-10-28 07:28:00,
2013-10-28 02:38:00,31.8,28.1,29.88,SW,215,1.0,2.0,86,0.00,CLR,CLR,0.00,0.0,WeatherDisplay:10.37,2013-10-28 07:38:00,
2013-10-28 02:47:00,31.1,27.4,29.88,SW,215,0.0,0.0,86,0.00,CLR,CLR,0.00,0.0,WeatherDisplay:10.37,2013-10-28 07:47:00,
2013-10-28 02:52:00,31.0,27.9,29.88,SW,215,0.0,0.0,88,0.00,CLR,CLR,0.00,0.0,WeatherDisplay:10.37,2013-10-28 07:52:00,
2013-10-28 02:57:00,31.0,27.9,29.88,SW,215,0.0,0.0,88,0.00,CLR,CLR,0.00,0.0,WeatherDisplay:10.37,2013-10-28 07:57:00,
2013-10-28 03:02:00,31.0,28.2,29.88,SW,215,0.0,0.0,89,0.00,CLR,CLR,0.00,0.0,WeatherDisplay:10.37,2013-10-28 08:02:00,
2013-10-28 03:07:00,31.2,28.3,29.88,SW,215,0.0,0.0,89,0.00,CLR,CLR,0.00,0.0,WeatherDisplay:10.37,2013-10-28 08:07:00,
2013-10-28 03:12:00,31.1,28.0,29.88,SW,215,0.0,0.0,88,0.00,CLR,CLR,0.00,0.0,WeatherDisplay:10.37,2013-10-28 08:12:00,
2013-10-28 03:17:00,30.8,27.4,29.89,SW,215,0.0,0.0,87,0.00,CLR,CLR,0.00,0.0,WeatherDisplay:10.37,2013-10-28 08:17:00,
2013-10-28 03:22:00,30.4,26.7,29.89,SW,215,0.0,0.0,86,0.00,CLR,CLR,0.00,0.0,WeatherDisplay:10.37,2013-10-28 08:22:00,
2013-10-28 03:27:00,30.1,26.7,29.89,SW,215,0.0,0.0,87,0.00,CLR,CLR,0.00,0.0,WeatherDisplay:10.37,2013-10-28 08:27:00,
2013-10-28 03:32:00,29.8,26.4,29.89,SW,215,0.0,0.0,87,0.00,CLR,CLR,0.00,0.0,WeatherDisplay:10.37,2013-10-28 08:32:00,
2013-10-28 03:37:00,29.6,26.5,29.89,SW,215,0.0,1.0,88,0.00,CLR,CLR,0.00,0.0,WeatherDisplay:10.37,2013-10-28 08:37:00,
2013-10-28 03:42:00,29.4,26.6,29.89,SW,215,0.0,0.0,89,0.00,CLR,CLR,0.00,0.0,WeatherDisplay:10.37,2013-10-28 08:42:00,
2013-10-28 03:47:00,29.4,26.8,29.89,SW,215,0.0,0.0,90,0.00,CLR,CLR,0.00,0.0,WeatherDisplay:10.37,2013-10-28 08:47:00,
2013-10-28 03:52:00,29.5,26.9,29.90,SW,215,0.0,0.0,90,0.00,CLR,CLR,0.00,0.0,WeatherDisplay:10.37,2013-10-28 08:52:00,
2013-10-28 03:57:00,29.5,26.9,29.89,SW,215,0.0,0.0,90,0.00,CLR,CLR,0.00,0.0,WeatherDisplay:10.37,2013-10-28 08:57:00,
2013-10-28 04:02:00,29.8,27.8,29.90,SW,215,0.0,0.0,92,0.00,CLR,CLR,0.00,0.0,WeatherDisplay:10.37,2013-10-28 09:02:00,
2013-10-28 04:07:00,30.0,27.4,29.90,SW,215,0.0,0.0,90,0.00,CLR,CLR,0.00,0.0,WeatherDisplay:10.37,2013-10-28 09:07:00,
2013-10-28 04:12:00,29.5,26.4,29.90,SW,215,0.0,0.0,88,0.00,CLR,CLR,0.00,0.0,WeatherDisplay:10.37,2013-10-28 09:12:00,
2013-10-28 04:17:00,29.4,26.6,29.90,SW,215,0.0,0.0,89,0.00,CLR,CLR,0.00,0.0,WeatherDisplay:10.37,2013-10-28 09:17:00,
2013-10-28 04:22:00,29.6,27.3,29.90,SW,215,0.0,0.0,91,0.00,CLR,CLR,0.00,0.0,WeatherDisplay:10.37,2013-10-28 09:22:00,
2013-10-28 04:27:00,29.8,27.5,29.90,SW,215,0.0,0.0,91,0.00,CLR,CLR,0.00,0.0,WeatherDisplay:10.37,2013-10-28 09:27:00,
2013-10-28 04:32:00,29.7,26.9,29.90,SW,215,0.0,0.0,89,0.00,CLR,CLR,0.00,0.0,WeatherDisplay:10.37,2013-10-28 09:32:00,
2013-10-28 04:37:00,29.5,26.7,29.90,SW,215,0.0,0.0,89,0.00,CLR,CLR,0.00,0.0,WeatherDisplay:10.37,2013-10-28 09:37:00,
2013-10-28 04:42:00,29.2,26.4,29.90,SW,215,0.0,0.0,89,0.00,CLR,CLR,0.00,0.0,WeatherDisplay:10.37,2013-10-28 09:42:00,
2013-10-28 04:47:00,29.0,26.4,29.90,SW,215,0.0,0.0,90,0.00,CLR,CLR,0.00,0.0,WeatherDisplay:10.37,2013-10-28 09:47:00,
2013-10-28 04:52:00,29.0,26.4,29.90,SW,215,0.0,0.0,90,0.00,CLR,CLR,0.00,0.0,WeatherDisplay:10.37,2013-10-28 09:52:00,
2013-10-28 04:57:00,29.1,26.8,29.91,SW,215,0.0,0.0,91,0.00,CLR,CLR,0.00,0.0,WeatherDisplay:10.37,2013-10-28 09:57:00,
2013-10-28 05:02:00,28.9,26.3,29.91,SW,215,0.0,0.0,90,0.00,CLR,CLR,0.00,0.0,WeatherDisplay:10.37,2013-10-28 10:02:00,
2013-10-28 05:07:00,28.5,25.7,29.91,SW,215,0.0,0.0,89,0.00,CLR,CLR,0.00,0.0,WeatherDisplay:10.37,2013-10-28 10:07:00,
2013-10-28 05:12:00,28.7,26.7,29.91,SW,215,0.0,0.0,92,0.00,CLR,CLR,0.00,0.0,WeatherDisplay:10.37,2013-10-28 10:12:00,
2013-10-28 05:17:00,28.7,26.2,29.91,SW,215,0.0,0.0,90,0.00,CLR,CLR,0.00,0.0,WeatherDisplay:10.37,2013-10-28 10:17:00,
2013-10-28 05:22:00,28.2,25.4,29.92,SW,215,0.0,0.0,89,0.00,CLR,CLR,0.00,0.0,WeatherDisplay:10.37,2013-10-28 10:22:00,
2013-10-28 05:27:00,28.1,25.8,29.92,SW,215,0.0,0.0,91,0.00,CLR,CLR,0.00,0.0,WeatherDisplay:10.37,2013-10-28 10:27:00,
2013-10-28 05:32:00,28.0,25.4,29.92,SW,215,0.0,0.0,90,0.00,CLR,CLR,0.00,0.0,WeatherDisplay:10.37,2013-10-28 10:32:00,
2013-10-28 05:37:00,27.8,25.2,29.92,SW,215,0.0,0.0,90,0.00,CLR,CLR,0.00,0.0,WeatherDisplay:10.37,2013-10-28 10:37:00,
2013-10-28 05:42:00,27.6,25.1,29.92,SW,215,0.0,0.0,90,0.00,CLR,CLR,0.00,0.0,WeatherDisplay:10.37,2013-10-28 10:42:00,
2013-10-28 05:47:00,27.8,25.8,29.92,SW,215,0.0,1.0,92,0.00,CLR,CLR,0.00,0.0,WeatherDisplay:10.37,2013-10-28 10:47:00,
2013-10-28 05:52:00,27.9,25.6,29.92,SW,215,0.0,0.0,91,0.00,CLR,CLR,0.00,0.0,WeatherDisplay:10.37,2013-10-28 10:52:00,
2013-10-28 05:57:00,27.6,25.3,29.93,SW,215,0.0,0.0,91,0.00,CLR,CLR,0.00,0.0,WeatherDisplay:10.37,2013-10-28 10:57:00,
2013-10-28 06:02:00,27.5,25.2,29.93,SW,215,0.0,0.0,91,0.00,CLR,CLR,0.00,0.0,WeatherDisplay:10.37,2013-10-28 11:02:00,
2013-10-28 06:07:00,27.5,25.5,29.93,SW,215,0.0,1.0,92,0.00,CLR,CLR,0.00,0.0,WeatherDisplay:10.37,2013-10-28 11:07:00,
2013-10-28 06:12:00,28.9,27.7,29.95,North,4,6.0,13.0,95,0.00,CLR,CLR,0.00,0.0,WeatherDisplay:10.37,2013-10-28 11:12:00,
2013-10-28 06:17:00,31.2,29.7,29.96,NNE,13,2.0,9.0,94,0.00,CLR,CLR,0.00,0.0,WeatherDisplay:10.37,2013-10-28 11:17:00,
2013-10-28 06:27:00,33.5,30.0,29.96,NNE,17,2.0,4.0,87,0.00,CLR,CLR,0.00,0.0,WeatherDisplay:10.37,2013-10-28 11:27:00,
2013-10-28 06:32:00,33.6,29.9,29.95,NNE,14,0.0,1.0,86,0.00,CLR,CLR,0.00,0.0,WeatherDisplay:10.37,2013-10-28 11:32:00,
2013-10-28 06:37:00,33.3,29.2,29.95,NNE,14,0.0,2.0,85,0.00,CLR,CLR,0.00,0.0,WeatherDisplay:10.37,2013-10-28 11:37:00,
2013-10-28 06:42:00,32.6,28.6,29.96,NNE,13,0.0,3.0,85,0.00,CLR,CLR,0.00,0.0,WeatherDisplay:10.37,2013-10-28 11:42:00,
2013-10-28 06:47:00,32.4,29.0,29.96,NNE,12,1.0,3.0,87,0.00,CLR,CLR,0.00,0.0,WeatherDisplay:10.37,2013-10-28 11:47:00,
2013-10-28 06:52:00,32.1,28.4,29.95,NNE,12,0.0,3.0,86,0.00,CLR,CLR,0.00,0.0,WeatherDisplay:10.37,2013-10-28 11:52:00,
2013-10-28 06:57:00,31.9,28.8,29.96,NNE,12,0.0,3.0,88,0.00,CLR,CLR,0.00,0.0,WeatherDisplay:10.37,2013-10-28 11:57:00,
2013-10-28 07:02:00,31.9,28.8,29.96,NNE,12,0.0,2.0,88,0.00,CLR,CLR,0.00,0.0,WeatherDisplay:10.37,2013-10-28 12:02:00,
2013-10-28 07:07:00,31.7,27.9,29.97,NNE,12,0.0,0.0,86,0.00,CLR,CLR,0.00,0.0,WeatherDisplay:10.37,2013-10-28 12:07:00,
2013-10-28 07:12:00,31.3,27.6,29.97,NNE,12,0.0,0.0,86,0.00,CLR,CLR,0.00,0.0,WeatherDisplay:10.37,2013-10-28 12:12:00,
2013-10-28 07:17:00,30.6,27.0,29.97,NNE,12,0.0,1.0,86,0.00,CLR,CLR,0.00,0.0,WeatherDisplay:10.37,2013-10-28 12:17:00,
2013-10-28 07:22:00,30.1,26.4,29.97,NNE,12,0.0,0.0,86,0.00,CLR,CLR,0.00,0.0,WeatherDisplay:10.37,2013-10-28 12:22:00,
2013-10-28 07:28:00,30.3,27.7,29.98,NNE,12,0.0,3.0,90,0.00,CLR,CLR,0.00,0.0,WeatherDisplay:10.37,2013-10-28 12:28:00,
2013-10-28 07:37:00,30.2,27.6,29.98,NNE,12,0.0,1.0,90,0.00,CLR,CLR,0.00,0.0,WeatherDisplay:10.37,2013-10-28 12:37:00,
2013-10-28 07:42:00,29.8,26.6,29.99,NNE,12,1.0,3.0,88,0.00,CLR,CLR,0.00,0.0,WeatherDisplay:10.37,2013-10-28 12:42:00,
2013-10-28 07:48:00,29.8,27.2,29.99,NNE,12,0.0,3.0,90,0.00,CLR,CLR,0.00,0.0,WeatherDisplay:10.37,2013-10-28 12:48:00,
2013-10-28 07:52:00,30.0,27.4,29.99,NNE,12,0.0,3.0,90,0.00,CLR,CLR,0.00,0.0,WeatherDisplay:10.37,2013-10-28 12:52:00,
2013-10-28 07:57:00,30.3,27.7,30.00,NNE,12,0.0,0.0,90,0.00,CLR,CLR,0.00,0.0,WeatherDisplay:10.37,2013-10-28 12:57:00,
2013-10-28 08:02:00,30.7,28.1,30.00,NNE,12,0.0,1.0,90,0.00,CLR,CLR,0.00,0.0,WeatherDisplay:10.37,2013-10-28 13:02:00,
2013-10-28 08:07:00,31.2,28.7,30.00,NNE,12,0.0,0.0,90,0.00,CLR,CLR,0.00,0.0,WeatherDisplay:10.37,2013-10-28 13:07:00,
2013-10-28 08:12:00,32.1,29.5,30.00,NNE,12,0.0,0.0,90,0.00,CLR,CLR,0.00,0.0,WeatherDisplay:10.37,2013-10-28 13:12:00,
2013-10-28 08:17:00,33.0,30.4,30.00,NNE,12,0.0,0.0,90,0.00,CLR,CLR,0.00,0.0,WeatherDisplay:10.37,2013-10-28 13:17:00,
2013-10-28 08:22:00,33.9,31.3,30.01,NNE,12,0.0,1.0,90,0.00,CLR,CLR,0.00,0.0,WeatherDisplay:10.37,2013-10-28 13:22:00,
2013-10-28 08:27:00,35.1,32.4,30.00,NNE,12,0.0,1.0,90,0.00,CLR,CLR,0.00,0.0,WeatherDisplay:10.37,2013-10-28 13:27:00,
2013-10-28 08:32:00,36.0,33.1,30.01,NNE,12,0.0,1.0,89,0.00,CLR,CLR,0.00,0.0,WeatherDisplay:10.37,2013-10-28 13:32:00,
2013-10-28 08:37:00,36.8,33.3,30.01,NNE,12,0.0,1.0,87,0.00,CLR,CLR,0.00,0.0,WeatherDisplay:10.37,2013-10-28 13:37:00,
2013-10-28 08:42:00,37.5,34.0,30.01,NNE,12,0.0,0.0,87,0.00,CLR,CLR,0.00,0.0,WeatherDisplay:10.37,2013-10-28 13:42:00,
2013-10-28 08:47:00,38.5,35.0,30.01,NNE,12,0.0,0.0,87,0.00,CLR,CLR,0.00,0.0,WeatherDisplay:10.37,2013-10-28 13:47:00,
2013-10-28 08:52:00,39.8,35.7,30.01,NNE,12,0.0,1.0,85,0.00,CLR,CLR,0.00,0.0,WeatherDisplay:10.37,2013-10-28 13:52:00,
2013-10-28 08:58:00,41.0,36.5,30.01,NNE,12,1.0,1.0,84,0.00,CLR,CLR,0.00,0.0,WeatherDisplay:10.37,2013-10-28 13:58:00,
2013-10-28 09:08:00,43.1,36.7,30.01,NE,44,1.0,3.0,78,0.00,CLR,CLR,0.00,0.0,WeatherDisplay:10.37,2013-10-28 14:08:00,
2013-10-28 09:12:00,43.8,37.4,30.01,NE,56,0.0,2.0,78,0.00,CLR,CLR,0.00,0.0,WeatherDisplay:10.37,2013-10-28 14:12:00,
2013-10-28 09:18:00,44.7,38.2,30.02,NE,53,2.0,3.0,78,0.00,CLR,CLR,0.00,0.0,WeatherDisplay:10.37,2013-10-28 14:18:00,
2013-10-28 09:27:00,46.2,39.3,30.02,NE,56,2.0,4.0,77,0.00,CLR,CLR,0.00,0.0,WeatherDisplay:10.37,2013-10-28 14:27:00,
2013-10-28 09:32:00,46.9,39.7,30.02,ENE,59,3.0,6.0,76,0.00,CLR,CLR,0.00,0.0,WeatherDisplay:10.37,2013-10-28 14:32:00,
2013-10-28 09:37:00,47.5,40.6,30.02,NE,45,3.0,5.0,77,0.00,CLR,CLR,0.00,0.0,WeatherDisplay:10.37,2013-10-28 14:37:00,
2013-10-28 09:42:00,47.9,41.0,30.02,NE,34,3.0,6.0,77,0.00,CLR,CLR,0.00,0.0,WeatherDisplay:10.37,2013-10-28 14:42:00,
2013-10-28 09:48:00,48.4,41.2,30.03,NE,35,3.0,5.0,76,0.00,CLR,CLR,0.00,0.0,WeatherDisplay:10.37,2013-10-28 14:48:00,
2013-10-28 09:57:00,49.7,41.7,30.03,ENE,70,2.0,5.0,74,0.00,CLR,CLR,0.00,0.0,WeatherDisplay:10.37,2013-10-28 14:57:00,
2013-10-28 10:02:00,50.2,42.2,30.03,ENE,72,2.0,5.0,74,0.00,CLR,CLR,0.00,0.0,WeatherDisplay:10.37,2013-10-28 15:02:00,
2013-10-28 10:08:00,50.6,42.9,30.03,ENE,60,2.0,5.0,75,0.00,CLR,CLR,0.00,0.0,WeatherDisplay:10.37,2013-10-28 15:08:00,
2013-10-28 10:17:00,51.9,44.9,30.03,ENE,60,3.0,7.0,77,0.00,CLR,CLR,0.00,0.0,WeatherDisplay:10.37,2013-10-28 15:17:00,
2013-10-28 10:27:00,53.2,46.5,30.03,NNE,26,3.0,8.0,78,0.00,CLR,CLR,0.00,0.0,WeatherDisplay:10.37,2013-10-28 15:27:00,
2013-10-28 10:32:00,54.0,46.6,30.03,ENE,62,3.0,8.0,76,0.00,CLR,CLR,0.00,0.0,WeatherDisplay:10.37,2013-10-28 15:32:00,
2013-10-28 10:37:00,54.4,46.6,30.03,ENE,66,6.0,9.0,75,0.00,CLR,CLR,0.00,0.0,WeatherDisplay:10.37,2013-10-28 15:37:00,
2013-10-28 10:42:00,54.4,45.9,30.03,NE,38,6.0,10.0,73,0.00,CLR,CLR,0.00,0.0,WeatherDisplay:10.37,2013-10-28 15:42:00,
2013-10-28 10:47:00,54.4,46.3,30.03,NE,39,5.0,9.0,74,0.00,CLR,CLR,0.00,0.0,WeatherDisplay:10.37,2013-10-28 15:47:00,
2013-10-28 10:52:00,54.8,46.0,30.03,ENE,59,5.0,8.0,72,0.00,CLR,CLR,0.00,0.0,WeatherDisplay:10.37,2013-10-28 15:52:00,
2013-10-28 10:57:00,55.1,46.6,30.03,ENE,68,3.0,8.0,73,0.00,CLR,CLR,0.00,0.0,WeatherDisplay:10.37,2013-10-28 15:57:00,
2013-10-28 11:02:00,55.5,45.9,30.03,ENE,63,3.0,9.0,70,0.00,CLR,CLR,0.00,0.0,WeatherDisplay:10.37,2013-10-28 16:02:00,
2013-10-28 11:07:00,55.9,46.2,30.03,ENE,70,5.0,8.0,70,0.00,CLR,CLR,0.00,0.0,WeatherDisplay:10.37,2013-10-28 16:07:00,
2013-10-28 11:12:00,56.0,45.9,30.03,ENE,74,2.0,8.0,69,0.00,CLR,CLR,0.00,0.0,WeatherDisplay:10.37,2013-10-28 16:12:00,
2013-10-28 11:17:00,56.0,46.0,30.03,NE,46,3.0,9.0,69,0.00,CLR,CLR,0.00,0.0,WeatherDisplay:10.37,2013-10-28 16:17:00,
2013-10-28 11:22:00,56.1,46.1,30.03,NNE,28,6.0,10.0,69,0.00,CLR,CLR,0.00,0.0,WeatherDisplay:10.37,2013-10-28 16:22:00,
2013-10-28 11:28:00,56.4,46.4,30.03,NNE,26,3.0,7.0,69,0.00,CLR,CLR,0.00,0.0,WeatherDisplay:10.37,2013-10-28 16:28:00,
2013-10-28 11:37:00,57.3,46.0,30.04,NE,40,5.0,8.0,66,0.00,CLR,CLR,0.00,0.0,WeatherDisplay:10.37,2013-10-28 16:37:00,
2013-10-28 11:42:00,57.4,45.7,30.04,NE,52,3.0,7.0,65,0.00,CLR,CLR,0.00,0.0,WeatherDisplay:10.37,2013-10-28 16:42:00,
2013-10-28 11:47:00,57.5,46.3,30.04,ENE,63,3.0,9.0,66,0.00,CLR,CLR,0.00,0.0,WeatherDisplay:10.37,2013-10-28 16:47:00,
2013-10-28 11:52:00,57.8,44.8,30.04,ENE,66,2.0,7.0,62,0.00,CLR,CLR,0.00,0.0,WeatherDisplay:10.37,2013-10-28 16:52:00,
2013-10-28 11:57:00,57.8,44.0,30.04,East,79,2.0,7.0,60,0.00,CLR,CLR,0.00,0.0,WeatherDisplay:10.37,2013-10-28 16:57:00,
2013-10-28 12:02:00,57.9,44.5,30.04,ENE,77,1.0,5.0,61,0.00,CLR,CLR,0.00,0.0,WeatherDisplay:10.37,2013-10-28 17:02:00,
2013-10-28 12:07:00,58.2,44.4,30.04,ENE,76,2.0,5.0,60,0.00,CLR,CLR,0.00,0.0,WeatherDisplay:10.37,2013-10-28 17:07:00,
2013-10-28 12:12:00,58.3,45.4,30.04,NE,52,1.0,9.0,62,0.00,CLR,CLR,0.00,0.0,WeatherDisplay:10.37,2013-10-28 17:12:00,
2013-10-28 12:17:00,58.4,44.5,30.04,NNE,16,3.0,7.0,60,0.00,CLR,CLR,0.00,0.0,WeatherDisplay:10.37,2013-10-28 17:17:00,
2013-10-28 12:22:00,58.3,44.9,30.04,NNE,17,5.0,8.0,61,0.00,CLR,CLR,0.00,0.0,WeatherDisplay:10.37,2013-10-28 17:22:00,
2013-10-28 12:27:00,58.2,44.4,30.04,NE,45,2.0,8.0,60,0.00,CLR,CLR,0.00,0.0,WeatherDisplay:10.37,2013-10-28 17:27:00,
2013-10-28 12:32:00,58.3,44.9,30.04,NE,46,2.0,7.0,61,0.00,CLR,CLR,0.00,0.0,WeatherDisplay:10.37,2013-10-28 17:32:00,
2013-10-28 12:37:00,58.7,45.7,30.03,NE,37,3.0,9.0,62,0.00,CLR,CLR,0.00,0.0,WeatherDisplay:10.37,2013-10-28 17:37:00,
2013-10-28 12:42:00,58.6,44.3,30.03,NNE,25,2.0,7.0,59,0.00,CLR,CLR,0.00,0.0,WeatherDisplay:10.37,2013-10-28 17:42:00,
2013-10-28 12:47:00,58.7,45.3,30.03,NNE,12,3.0,7.0,61,0.00,CLR,CLR,0.00,0.0,WeatherDisplay:10.37,2013-10-28 17:47:00,
2013-10-28 12:52:00,58.9,44.1,30.03,NNE,14,5.0,8.0,58,0.00,CLR,CLR,0.00,0.0,WeatherDisplay:10.37,2013-10-28 17:52:00,
2013-10-28 12:57:00,58.9,43.7,30.03,NNE,12,2.0,8.0,57,0.00,CLR,CLR,0.00,0.0,WeatherDisplay:10.37,2013-10-28 17:57:00,
2013-10-28 13:02:00,58.9,44.2,30.03,NNE,22,5.0,9.0,58,0.00,CLR,CLR,0.00,0.0,WeatherDisplay:10.37,2013-10-28 18:02:00,
2013-10-28 13:07:00,59.0,43.8,30.02,NNE,30,6.0,8.0,57,0.00,CLR,CLR,0.00,0.0,WeatherDisplay:10.37,2013-10-28 18:07:00,
2013-10-28 13:17:00,58.9,44.6,30.02,NE,39,3.0,8.0,59,0.00,CLR,CLR,0.00,0.0,WeatherDisplay:10.37,2013-10-28 18:17:00,
2013-10-28 13:27:00,59.4,44.2,30.02,NNE,27,5.0,8.0,57,0.00,CLR,CLR,0.00,0.0,WeatherDisplay:10.37,2013-10-28 18:27:00,
2013-10-28 13:32:00,59.6,43.4,30.02,NE,54,5.0,6.0,55,0.00,CLR,CLR,0.00,0.0,WeatherDisplay:10.37,2013-10-28 18:32:00,
2013-10-28 13:37:00,59.3,42.6,30.01,East,101,3.0,7.0,54,0.00,CLR,CLR,0.00,0.0,WeatherDisplay:10.37,2013-10-28 18:37:00,
2013-10-28 13:47:00,59.5,45.2,30.01,NNE,31,3.0,7.0,59,0.00,CLR,CLR,0.00,0.0,WeatherDisplay:10.37,2013-10-28 18:47:00,
2013-10-28 13:52:00,59.3,44.5,30.01,NNE,27,3.0,9.0,58,0.00,CLR,CLR,0.00,0.0,WeatherDisplay:10.37,2013-10-28 18:52:00,
2013-10-28 13:57:00,59.3,44.5,30.01,NE,37,3.0,8.0,58,0.00,CLR,CLR,0.00,0.0,WeatherDisplay:10.37,2013-10-28 18:57:00,
2013-10-28 14:02:00,59.6,46.1,30.01,NE,41,5.0,8.0,61,0.00,CLR,CLR,0.00,0.0,WeatherDisplay:10.37,2013-10-28 19:02:00,
2013-10-28 14:07:00,59.6,44.8,30.01,NNE,29,5.0,8.0,58,0.00,CLR,CLR,0.00,0.0,WeatherDisplay:10.37,2013-10-28 19:07:00,
2013-10-28 14:17:00,59.7,45.4,30.01,NNE,16,6.0,8.0,59,0.00,CLR,CLR,0.00,0.0,WeatherDisplay:10.37,2013-10-28 19:17:00,
2013-10-28 14:22:00,59.9,45.1,30.01,NNE,20,5.0,12.0,58,0.00,CLR,CLR,0.00,0.0,WeatherDisplay:10.37,2013-10-28 19:22:00,
2013-10-28 14:27:00,60.2,45.3,30.01,NNE,30,3.0,7.0,58,0.00,CLR,CLR,0.00,0.0,WeatherDisplay:10.37,2013-10-28 19:27:00,
2013-10-28 14:32:00,60.4,46.0,30.01,NNE,26,5.0,9.0,59,0.00,CLR,CLR,0.00,0.0,WeatherDisplay:10.37,2013-10-28 19:32:00,
2013-10-28 14:37:00,60.3,45.9,30.01,NNE,22,6.0,10.0,59,0.00,CLR,CLR,0.00,0.0,WeatherDisplay:10.37,2013-10-28 19:37:00,
2013-10-28 14:47:00,59.2,45.8,30.01,NNE,20,5.0,10.0,61,0.00,CLR,CLR,0.00,0.0,WeatherDisplay:10.37,2013-10-28 19:47:00,
2013-10-28 14:58:00,59.4,45.9,30.01,NE,35,7.0,10.0,61,0.00,CLR,CLR,0.00,0.0,WeatherDisplay:10.37,2013-10-28 19:58:00,
2013-10-28 15:07:00,59.1,45.7,30.01,NNE,20,5.0,12.0,61,0.00,CLR,CLR,0.00,0.0,WeatherDisplay:10.37,2013-10-28 20:07:00,
2013-10-28 15:12:00,59.1,46.1,30.01,NNE,25,5.0,10.0,62,0.00,CLR,CLR,0.00,0.0,WeatherDisplay:10.37,2013-10-28 20:12:00,
2013-10-28 15:17:00,58.6,46.0,30.01,NE,35,8.0,12.0,63,0.00,CLR,CLR,0.00,0.0,WeatherDisplay:10.37,2013-10-28 20:17:00,
2013-10-28 15:22:00,58.1,46.4,30.01,NNE,33,7.0,12.0,65,0.00,CLR,CLR,0.00,0.0,WeatherDisplay:10.37,2013-10-28 20:22:00,
2013-10-28 15:27:00,57.7,46.5,30.01,NNE,25,7.0,12.0,66,0.00,CLR,CLR,0.00,0.0,WeatherDisplay:10.37,2013-10-28 20:27:00,
2013-10-28 15:32:00,57.5,46.6,30.02,NNE,23,5.0,12.0,67,0.00,CLR,CLR,0.00,0.0,WeatherDisplay:10.37,2013-10-28 20:32:00,
2013-10-28 15:37:00,57.2,46.4,30.01,NNE,16,6.0,10.0,67,0.00,CLR,CLR,0.00,0.0,WeatherDisplay:10.37,2013-10-28 20:37:00,
2013-10-28 15:42:00,56.9,46.0,30.02,NNE,29,7.0,13.0,67,0.00,CLR,CLR,0.00,0.0,WeatherDisplay:10.37,2013-10-28 20:42:00,
2013-10-28 15:47:00,56.4,45.6,30.02,NNE,25,8.0,12.0,67,0.00,CLR,CLR,0.00,0.0,WeatherDisplay:10.37,2013-10-28 20:47:00,
2013-10-28 15:52:00,56.1,45.7,30.02,NNE,25,7.0,12.0,68,0.00,CLR,CLR,0.00,0.0,WeatherDisplay:10.37,2013-10-28 20:52:00,
2013-10-28 15:57:00,55.6,45.2,30.02,NNE,31,6.0,13.0,68,0.00,CLR,CLR,0.00,0.0,WeatherDisplay:10.37,2013-10-28 20:57:00,
2013-10-28 16:02:00,55.4,45.4,30.02,NNE,26,6.0,14.0,69,0.00,CLR,CLR,0.00,0.0,WeatherDisplay:10.37,2013-10-28 21:02:00,
2013-10-28 16:07:00,55.1,45.5,30.02,NNE,22,6.0,12.0,70,0.00,CLR,CLR,0.00,0.0,WeatherDisplay:10.37,2013-10-28 21:07:00,
2013-10-28 16:12:00,54.9,44.6,30.03,NNE,26,8.0,13.0,68,0.00,CLR,CLR,0.00,0.0,WeatherDisplay:10.37,2013-10-28 21:12:00,
2013-10-28 16:17:00,54.7,44.7,30.03,NNE,23,8.0,16.0,69,0.00,CLR,CLR,0.00,0.0,WeatherDisplay:10.37,2013-10-28 21:17:00,
2013-10-28 16:22:00,54.4,44.8,30.03,NNE,26,7.0,12.0,70,0.00,CLR,CLR,0.00,0.0,WeatherDisplay:10.37,2013-10-28 21:22:00,
2013-10-28 16:27:00,54.3,44.8,30.03,NNE,30,5.0,12.0,70,0.00,CLR,CLR,0.00,0.0,WeatherDisplay:10.37,2013-10-28 21:27:00,
2013-10-28 16:32:00,54.2,44.6,30.03,NNE,25,6.0,15.0,70,0.00,CLR,CLR,0.00,0.0,WeatherDisplay:10.37,2013-10-28 21:32:00,
2013-10-28 16:37:00,53.9,44.3,30.03,NNE,24,7.0,10.0,70,0.00,CLR,CLR,0.00,0.0,WeatherDisplay:10.37,2013-10-28 21:37:00,
2013-10-28 16:42:00,53.7,44.5,30.03,NNE,23,7.0,12.0,71,0.00,CLR,CLR,0.00,0.0,WeatherDisplay:10.37,2013-10-28 21:42:00,
2013-10-28 16:47:00,53.3,44.1,30.03,NNE,22,7.0,12.0,71,0.00,CLR,CLR,0.00,0.0,WeatherDisplay:10.37,2013-10-28 21:47:00,
2013-10-28 16:52:00,53.0,44.2,30.04,NNE,25,6.0,10.0,72,0.00,CLR,CLR,0.00,0.0,WeatherDisplay:10.37,2013-10-28 21:52:00,
2013-10-28 16:57:00,52.6,43.9,30.04,NNE,27,7.0,12.0,72,0.00,CLR,CLR,0.00,0.0,WeatherDisplay:10.37,2013-10-28 21:57:00,
2013-10-28 17:02:00,52.3,43.9,30.04,NNE,26,5.0,10.0,73,0.00,CLR,CLR,0.00,0.0,WeatherDisplay:10.37,2013-10-28 22:02:00,
2013-10-28 17:08:00,51.9,43.9,30.04,NNE,26,6.0,12.0,74,0.00,CLR,CLR,0.00,0.0,WeatherDisplay:10.37,2013-10-28 22:08:00,
2013-10-28 17:17:00,51.2,43.5,30.05,NNE,27,5.0,13.0,75,0.00,CLR,CLR,0.00,0.0,WeatherDisplay:10.37,2013-10-28 22:17:00,
2013-10-28 17:22:00,50.9,43.6,30.05,NNE,23,5.0,12.0,76,0.00,CLR,CLR,0.00,0.0,WeatherDisplay:10.37,2013-10-28 22:22:00,
2013-10-28 17:27:00,50.6,43.3,30.05,NNE,25,6.0,9.0,76,0.00,CLR,CLR,0.00,0.0,WeatherDisplay:10.37,2013-10-28 22:27:00,
2013-10-28 17:32:00,50.4,43.4,30.05,NNE,24,5.0,9.0,77,0.00,CLR,CLR,0.00,0.0,WeatherDisplay:10.37,2013-10-28 22:32:00,
2013-10-28 17:37:00,50.1,43.2,30.05,NNE,24,6.0,12.0,77,0.00,CLR,CLR,0.00,0.0,WeatherDisplay:10.37,2013-10-28 22:37:00,
2013-10-28 17:47:00,49.4,43.2,30.05,NNE,30,7.0,10.0,79,0.00,CLR,CLR,0.00,0.0,WeatherDisplay:10.37,2013-10-28 22:47:00,
2013-10-28 17:52:00,49.2,43.0,30.05,NNE,32,6.0,9.0,79,0.00,CLR,CLR,0.00,0.0,WeatherDisplay:10.37,2013-10-28 22:52:00,
2013-10-28 17:57:00,49.0,42.7,30.05,NNE,29,5.0,7.0,79,0.00,CLR,CLR,0.00,0.0,WeatherDisplay:10.37,2013-10-28 22:57:00,
2013-10-28 18:02:00,48.7,42.8,30.05,NNE,29,5.0,9.0,80,0.00,CLR,CLR,0.00,0.0,WeatherDisplay:10.37,2013-10-28 23:02:00,
2013-10-28 18:07:00,48.5,42.9,30.05,NNE,25,3.0,9.0,81,0.00,CLR,CLR,0.00,0.0,WeatherDisplay:10.37,2013-10-28 23:07:00,
2013-10-28 18:12:00,48.2,42.6,30.05,NNE,23,5.0,8.0,81,0.00,CLR,CLR,0.00,0.0,WeatherDisplay:10.37,2013-10-28 23:12:00,
2013-10-28 18:17:00,48.0,42.8,30.06,NNE,30,7.0,12.0,82,0.00,CLR,CLR,0.00,0.0,WeatherDisplay:10.37,2013-10-28 23:17:00,
2013-10-28 18:22:00,48.0,42.7,30.06,NNE,28,5.0,9.0,82,0.00,CLR,CLR,0.00,0.0,WeatherDisplay:10.37,2013-10-28 23:22:00,
2013-10-28 18:27:00,47.7,42.5,30.06,NNE,24,3.0,7.0,82,0.00,CLR,CLR,0.00,0.0,WeatherDisplay:10.37,2013-10-28 23:27:00,
2013-10-28 18:32:00,47.4,42.5,30.07,NNE,29,3.0,6.0,83,0.00,CLR,CLR,0.00,0.0,WeatherDisplay:10.37,2013-10-28 23:32:00,
2013-10-28 18:37:00,47.1,42.2,30.07,NNE,31,5.0,8.0,83,0.00,CLR,CLR,0.00,0.0,WeatherDisplay:10.37,2013-10-28 23:37:00,
2013-10-28 18:42:00,47.0,42.4,30.07,NNE,30,5.0,10.0,84,0.00,CLR,CLR,0.00,0.0,WeatherDisplay:10.37,2013-10-28 23:42:00,
2013-10-28 18:47:00,47.0,42.4,30.07,NNE,26,5.0,9.0,84,0.00,CLR,CLR,0.00,0.0,WeatherDisplay:10.37,2013-10-28 23:47:00,
2013-10-28 18:57:00,47.0,42.4,30.08,NNE,28,6.0,9.0,84,0.00,CLR,CLR,0.00,0.0,WeatherDisplay:10.37,2013-10-28 23:57:00,
2013-10-28 19:02:00,46.9,42.3,30.08,NNE,25,6.0,9.0,84,0.00,CLR,CLR,0.00,0.0,WeatherDisplay:10.37,2013-10-29 00:02:00,
2013-10-28 19:07:00,46.9,42.3,30.08,NNE,31,5.0,10.0,84,0.00,CLR,CLR,0.00,0.0,WeatherDisplay:10.37,2013-10-29 00:07:00,
2013-10-28 19:12:00,46.8,42.2,30.08,NNE,25,5.0,10.0,84,0.00,CLR,CLR,0.00,0.0,WeatherDisplay:10.37,2013-10-29 00:12:00,
2013-10-28 19:17:00,46.7,42.1,30.08,NNE,23,8.0,12.0,84,0.00,CLR,CLR,0.00,0.0,WeatherDisplay:10.37,2013-10-29 00:17:00,
2013-10-28 19:22:00,46.7,42.1,30.08,NNE,28,5.0,12.0,84,0.00,CLR,CLR,0.00,0.0,WeatherDisplay:10.37,2013-10-29 00:22:00,
2013-10-28 19:27:00,46.4,41.9,30.08,NNE,28,3.0,8.0,84,0.00,CLR,CLR,0.00,0.0,WeatherDisplay:10.37,2013-10-29 00:27:00,
2013-10-28 19:37:00,46.0,41.7,30.08,NNE,29,2.0,7.0,85,0.00,CLR,CLR,0.00,0.0,WeatherDisplay:10.37,2013-10-29 00:37:00,
2013-10-28 19:42:00,45.9,41.6,30.08,NNE,32,5.0,9.0,85,0.00,CLR,CLR,0.00,0.0,WeatherDisplay:10.37,2013-10-29 00:42:00,
2013-10-28 19:47:00,45.8,41.5,30.08,NNE,33,3.0,8.0,85,0.00,CLR,CLR,0.00,0.0,WeatherDisplay:10.37,2013-10-29 00:47:00,
2013-10-28 19:53:00,45.7,41.7,30.08,NNE,29,3.0,8.0,86,0.00,CLR,CLR,0.00,0.0,WeatherDisplay:10.37,2013-10-29 00:53:00,
2013-10-28 20:02:00,45.6,41.7,30.09,NNE,25,3.0,8.0,86,0.00,CLR,CLR,0.00,0.0,WeatherDisplay:10.37,2013-10-29 01:02:00,
2013-10-28 20:07:00,45.5,41.6,30.08,NNE,25,6.0,8.0,86,0.00,CLR,CLR,0.00,0.0,WeatherDisplay:10.37,2013-10-29 01:07:00,
2013-10-28 20:12:00,45.4,41.5,30.09,NNE,27,6.0,10.0,86,0.00,CLR,CLR,0.00,0.0,WeatherDisplay:10.37,2013-10-29 01:12:00,
2013-10-28 20:17:00,45.5,41.6,30.09,NNE,31,6.0,12.0,86,0.00,CLR,CLR,0.00,0.0,WeatherDisplay:10.37,2013-10-29 01:17:00,
2013-10-28 20:22:00,45.5,41.6,30.09,NNE,29,5.0,8.0,86,0.00,CLR,CLR,0.00,0.0,WeatherDisplay:10.37,2013-10-29 01:22:00,
2013-10-28 20:27:00,45.4,41.5,30.09,NNE,29,5.0,8.0,86,0.00,CLR,CLR,0.00,0.0,WeatherDisplay:10.37,2013-10-29 01:27:00,
2013-10-28 20:37:00,45.3,41.7,30.09,NNE,26,5.0,10.0,87,0.00,CLR,CLR,0.00,0.0,WeatherDisplay:10.37,2013-10-29 01:37:00,
2013-10-28 20:47:00,45.2,41.6,30.09,NNE,28,5.0,12.0,87,0.00,CLR,CLR,0.00,0.0,WeatherDisplay:10.37,2013-10-29 01:47:00,
2013-10-28 20:52:00,45.2,41.6,30.09,NNE,22,6.0,12.0,87,0.00,CLR,CLR,0.00,0.0,WeatherDisplay:10.37,2013-10-29 01:52:00,
2013-10-28 20:57:00,45.3,41.6,30.09,NNE,30,6.0,9.0,87,0.00,CLR,CLR,0.00,0.0,WeatherDisplay:10.37,2013-10-29 01:57:00,
2013-10-28 21:02:00,45.2,41.6,30.10,NNE,30,5.0,8.0,87,0.00,CLR,CLR,0.00,0.0,WeatherDisplay:10.37,2013-10-29 02:02:00,
2013-10-28 21:07:00,45.2,41.6,30.10,NNE,28,5.0,9.0,87,0.00,CLR,CLR,0.00,0.0,WeatherDisplay:10.37,2013-10-29 02:07:00,
2013-10-28 21:12:00,45.2,41.6,30.10,NNE,28,5.0,10.0,87,0.00,CLR,CLR,0.00,0.0,WeatherDisplay:10.37,2013-10-29 02:12:00,
2013-10-28 21:17:00,45.2,41.9,30.10,NNE,29,6.0,12.0,88,0.00,CLR,CLR,0.00,0.0,WeatherDisplay:10.37,2013-10-29 02:17:00,
2013-10-28 21:22:00,45.3,41.7,30.10,NNE,31,6.0,12.0,87,0.00,CLR,CLR,0.00,0.0,WeatherDisplay:10.37,2013-10-29 02:22:00,
2013-10-28 21:27:00,45.5,41.9,30.10,NE,36,6.0,12.0,87,0.00,CLR,CLR,0.00,0.0,WeatherDisplay:10.37,2013-10-29 02:27:00,
2013-10-28 21:32:00,45.5,41.9,30.10,NNE,33,7.0,9.0,87,0.00,CLR,CLR,0.00,0.0,WeatherDisplay:10.37,2013-10-29 02:32:00,
2013-10-28 21:37:00,45.6,42.0,30.10,NE,34,6.0,12.0,87,0.00,CLR,CLR,0.00,0.0,WeatherDisplay:10.37,2013-10-29 02:37:00,
2013-10-28 21:42:00,45.7,42.1,30.10,NE,35,7.0,12.0,87,0.00,CLR,CLR,0.00,0.0,WeatherDisplay:10.37,2013-10-29 02:42:00,
2013-10-28 21:47:00,45.8,42.2,30.10,NE,38,8.0,13.0,87,0.00,CLR,CLR,0.00,0.0,WeatherDisplay:10.37,2013-10-29 02:47:00,
2013-10-28 21:52:00,45.9,42.2,30.10,NNE,32,6.0,12.0,87,0.00,CLR,CLR,0.00,0.0,WeatherDisplay:10.37,2013-10-29 02:52:00,
2013-10-28 21:57:00,45.9,42.3,30.10,NNE,32,8.0,10.0,87,0.00,CLR,CLR,0.00,0.0,WeatherDisplay:10.37,2013-10-29 02:57:00,
2013-10-28 22:02:00,46.0,42.0,30.10,NE,37,7.0,12.0,86,0.00,CLR,CLR,0.00,0.0,WeatherDisplay:10.37,2013-10-29 03:02:00,
2013-10-28 22:07:00,46.0,42.0,30.11,NNE,33,7.0,10.0,86,0.00,CLR,CLR,0.00,0.0,WeatherDisplay:10.37,2013-10-29 03:07:00,
2013-10-28 22:17:00,46.1,42.1,30.11,NNE,31,7.0,12.0,86,0.00,CLR,CLR,0.00,0.0,WeatherDisplay:10.37,2013-10-29 03:17:00,
2013-10-28 22:22:00,46.0,42.0,30.11,NNE,31,6.0,10.0,86,0.00,CLR,CLR,0.00,0.0,WeatherDisplay:10.37,2013-10-29 03:22:00,
2013-10-28 22:27:00,46.0,42.0,30.10,NE,39,3.0,10.0,86,0.00,CLR,CLR,0.00,0.0,WeatherDisplay:10.37,2013-10-29 03:27:00,
2013-10-28 22:32:00,45.9,41.9,30.11,NE,40,5.0,8.0,86,0.00,CLR,CLR,0.00,0.0,WeatherDisplay:10.37,2013-10-29 03:32:00,
2013-10-28 22:37:00,45.8,42.1,30.10,NE,39,6.0,10.0,87,0.00,CLR,CLR,0.00,0.0,WeatherDisplay:10.37,2013-10-29 03:37:00,
2013-10-28 22:42:00,45.7,42.1,30.10,NE,40,1.0,8.0,87,0.00,CLR,CLR,0.00,0.0,WeatherDisplay:10.37,2013-10-29 03:42:00,
2013-10-28 22:47:00,45.6,42.0,30.10,NE,40,2.0,8.0,87,0.00,CLR,CLR,0.00,0.0,WeatherDisplay:10.37,2013-10-29 03:47:00,
2013-10-28 22:57:00,45.3,42.0,30.10,NNE,33,2.0,7.0,88,0.00,CLR,CLR,0.00,0.0,WeatherDisplay:10.37,2013-10-29 03:57:00,
2013-10-28 23:02:00,45.3,42.0,30.10,NNE,29,2.0,8.0,88,0.00,CLR,CLR,0.00,0.0,WeatherDisplay:10.37,2013-10-29 04:02:00,
2013-10-28 23:07:00,45.3,42.0,30.11,NNE,27,2.0,7.0,88,0.00,CLR,CLR,0.00,0.0,WeatherDisplay:10.37,2013-10-29 04:07:00,
2013-10-28 23:12:00,45.3,42.0,30.11,NNE,28,3.0,9.0,88,0.00,CLR,CLR,0.00,0.0,WeatherDisplay:10.37,2013-10-29 04:12:00,
2013-10-28 23:17:00,45.4,42.1,30.11,NNE,29,3.0,12.0,88,0.00,CLR,CLR,0.00,0.0,WeatherDisplay:10.37,2013-10-29 04:17:00,
2013-10-28 23:22:00,45.6,42.3,30.11,NNE,30,5.0,12.0,88,0.00,CLR,CLR,0.00,0.0,WeatherDisplay:10.37,2013-10-29 04:22:00,
2013-10-28 23:27:00,45.6,42.3,30.11,NNE,31,5.0,12.0,88,0.00,CLR,CLR,0.00,0.0,WeatherDisplay:10.37,2013-10-29 04:27:00,
2013-10-28 23:37:00,45.5,41.9,30.11,NNE,32,3.0,8.0,87,0.00,CLR,CLR,0.00,0.0,WeatherDisplay:10.37,2013-10-29 04:37:00,
2013-10-28 23:42:00,45.4,42.1,30.11,NNE,33,5.0,9.0,88,0.00,CLR,CLR,0.00,0.0,WeatherDisplay:10.37,2013-10-29 04:42:00,
2013-10-28 23:47:00,45.4,42.1,30.11,NNE,32,3.0,8.0,88,0.00,CLR,CLR,0.00,0.0,WeatherDisplay:10.37,2013-10-29 04:47:00,
2013-10-28 23:52:00,45.3,42.0,30.11,NNE,26,3.0,8.0,88,0.00,CLR,CLR,0.00,0.0,WeatherDisplay:10.37,2013-10-29 04:52:00,
2013-10-28 23:57:00,45.1,41.5,30.11,NNE,33,1.0,7.0,87,0.00,CLR,CLR,0.00,0.0,WeatherDisplay:10.37,2013-10-29 04:57:00,